createdAt,value
2023-08-07T00:02:12.312Z,36.65
2023-08-07T00:04:39.278Z,38.17
2023-08-07T00:07:06.732Z,36.10
2023-08-07T00:09:33.695Z,34.98
2023-08-07T00:12:01.050Z,35.25
2023-08-07T00:14:28.433Z,36.76
2023-08-07T00:16:58.089Z,35.19
2023-08-07T00:19:25.173Z,36.40
2023-08-07T00:21:52.761Z,36.33
2023-08-07T00:24:20.451Z,36.36
2023-08-07T00:26:47.837Z,36.29
2023-08-07T00:29:15.213Z,35.14
2023-08-07T00:31:42.691Z,35.52
2023-08-07T00:34:10.800Z,35.17
2023-08-07T00:36:38.206Z,35.20
2023-08-07T00:39:05.265Z,34.78
2023-08-07T00:41:32.693Z,35.50
2023-08-07T00:44:00.084Z,35.38
2023-08-07T00:46:28.113Z,35.41
2023-08-07T00:48:55.829Z,36.39
2023-08-07T00:51:24.767Z,36.30
2023-08-07T00:53:52.708Z,35.64
2023-08-07T00:56:20.245Z,35.95
2023-08-07T00:58:47.776Z,35.62
2023-08-07T01:01:15.819Z,36.27
2023-08-07T01:03:43.442Z,35.39
2023-08-07T01:06:10.831Z,34.55
2023-08-07T01:08:39.142Z,35.64
2023-08-07T01:11:12.011Z,36.34
2023-08-07T01:13:50.532Z,36.93
2023-08-07T01:16:32.692Z,37.30
2023-08-07T01:19:02.749Z,36.38
2023-08-07T01:21:30.170Z,36.57
2023-08-07T01:23:57.616Z,36.11
2023-08-07T01:26:25.043Z,36.57
2023-08-07T01:29:16.388Z,38.32
2023-08-07T01:31:44.227Z,37.26
2023-08-07T01:34:14.025Z,37.49
2023-08-07T01:36:41.764Z,36.75
2023-08-07T01:39:09.904Z,35.69
2023-08-07T01:41:37.445Z,35.97
2023-08-07T01:44:05.127Z,37.05
2023-08-07T01:46:32.633Z,36.38
2023-08-07T01:49:00.232Z,35.27
2023-08-07T01:51:27.243Z,35.60
2023-08-07T01:53:54.308Z,34.42
2023-08-07T01:56:21.694Z,36.56
2023-08-07T01:58:48.672Z,35.18
2023-08-07T02:01:16.265Z,34.78
2023-08-07T02:03:43.247Z,35.53
2023-08-07T02:06:10.738Z,35.80
2023-08-07T02:08:37.795Z,36.21
2023-08-07T02:11:05.895Z,35.58
2023-08-07T02:13:33.399Z,35.59
2023-08-07T02:16:01.288Z,35.67
2023-08-07T02:18:29.574Z,35.53
2023-08-07T02:20:56.664Z,33.92
2023-08-07T02:23:24.005Z,34.43
2023-08-07T02:25:52.385Z,34.79
2023-08-07T02:28:20.296Z,34.05
2023-08-07T02:30:51.903Z,34.84
2023-08-07T02:33:20.488Z,34.33
2023-08-07T02:35:47.978Z,34.29
2023-08-07T02:38:15.336Z,35.65
2023-08-07T02:40:42.328Z,34.98
2023-08-07T02:43:09.695Z,34.82
2023-08-07T02:45:38.088Z,35.14
2023-08-07T02:48:06.591Z,34.86
2023-08-07T02:50:34.081Z,34.00
2023-08-07T02:53:02.616Z,34.20
2023-08-07T02:55:29.988Z,35.13
2023-08-07T02:57:57.576Z,34.89
2023-08-07T03:00:24.959Z,34.19
2023-08-07T03:02:52.458Z,34.22
2023-08-07T03:05:19.981Z,33.59
2023-08-07T03:07:47.214Z,34.69
2023-08-07T03:10:14.378Z,34.59
2023-08-07T03:12:41.725Z,33.55
2023-08-07T03:15:09.780Z,35.26
2023-08-07T03:17:37.385Z,33.78
2023-08-07T03:20:05.209Z,34.69
2023-08-07T03:22:33.203Z,34.12
2023-08-07T03:25:00.793Z,34.61
2023-08-07T03:27:28.842Z,34.26
2023-08-07T03:29:56.369Z,35.06
2023-08-07T03:32:28.522Z,35.00
2023-08-07T03:34:56.220Z,34.33
2023-08-07T03:37:23.908Z,34.83
2023-08-07T03:39:51.741Z,34.65
2023-08-07T03:42:19.170Z,35.97
2023-08-07T03:44:47.632Z,34.40
2023-08-07T03:47:15.279Z,34.93
2023-08-07T03:49:42.734Z,35.46
2023-08-07T03:52:10.021Z,33.57
2023-08-07T03:54:37.413Z,33.16
2023-08-07T03:57:04.912Z,34.65
2023-08-07T03:59:32.376Z,35.37
2023-08-07T04:01:59.752Z,34.83
2023-08-07T04:04:27.151Z,35.83
2023-08-07T04:06:54.743Z,34.80
2023-08-07T04:09:22.549Z,34.60
2023-08-07T04:11:50.123Z,34.24
2023-08-07T04:14:17.463Z,34.45
2023-08-07T04:16:44.899Z,34.71
2023-08-07T04:19:12.707Z,34.06
2023-08-07T04:21:40.094Z,35.29
2023-08-07T04:24:11.843Z,35.57
2023-08-07T04:26:39.680Z,35.63
2023-08-07T04:29:07.603Z,34.16
2023-08-07T04:31:35.284Z,32.95
2023-08-07T04:34:02.816Z,34.00
2023-08-07T04:36:30.217Z,33.95
2023-08-07T04:38:57.669Z,34.78
2023-08-07T04:41:25.398Z,34.80
2023-08-07T04:43:52.792Z,35.92
2023-08-07T04:46:20.657Z,34.90
2023-08-07T04:48:48.748Z,35.22
2023-08-07T04:51:16.731Z,34.94
2023-08-07T04:53:44.117Z,34.37
2023-08-07T04:56:11.491Z,34.90
2023-08-07T04:58:38.962Z,34.94
2023-08-07T05:01:07.722Z,36.04
2023-08-07T05:03:35.202Z,34.40
2023-08-07T05:06:02.847Z,35.03
2023-08-07T05:08:30.324Z,35.67
2023-08-07T05:10:57.701Z,36.10
2023-08-07T05:13:25.074Z,35.31
2023-08-07T05:15:52.471Z,34.20
2023-08-07T05:18:20.362Z,34.85
2023-08-07T05:20:47.914Z,35.32
2023-08-07T05:23:15.300Z,35.68
2023-08-07T05:25:42.677Z,34.92
2023-08-07T05:28:10.036Z,35.38
2023-08-07T05:30:37.197Z,34.37
2023-08-07T05:33:04.637Z,35.20
2023-08-07T05:35:31.732Z,34.93
2023-08-07T05:37:59.177Z,35.64
2023-08-07T05:40:26.560Z,34.06
2023-08-07T05:42:53.995Z,35.10
2023-08-07T05:45:21.352Z,33.45
2023-08-07T05:47:48.777Z,34.82
2023-08-07T05:50:15.804Z,35.49
2023-08-07T05:52:43.231Z,34.70
2023-08-07T05:55:10.836Z,34.99
2023-08-07T05:57:38.204Z,34.76
2023-08-07T06:00:06.560Z,34.27
2023-08-07T06:02:39.294Z,35.00
2023-08-07T06:05:07.021Z,34.40
2023-08-07T06:07:34.520Z,34.88
2023-08-07T06:10:02.604Z,33.65
2023-08-07T06:12:30.055Z,33.58
2023-08-07T06:14:57.498Z,34.41
2023-08-07T06:17:24.954Z,35.01
2023-08-07T06:19:53.166Z,33.94
2023-08-07T06:22:20.580Z,34.79
2023-08-07T06:24:48.073Z,35.07
2023-08-07T06:27:15.918Z,34.89
2023-08-07T06:29:43.353Z,35.45
2023-08-07T06:32:11.827Z,35.88
2023-08-07T06:34:39.049Z,34.88
2023-08-07T06:37:06.849Z,34.47
2023-08-07T06:39:34.262Z,34.24
2023-08-07T06:42:01.890Z,34.21
2023-08-07T06:44:34.909Z,35.83
2023-08-07T06:47:02.473Z,34.74
2023-08-07T06:49:32.675Z,34.41
2023-08-07T06:52:00.085Z,35.51
2023-08-07T06:54:27.772Z,35.08
2023-08-07T06:56:54.760Z,35.41
2023-08-07T06:59:22.243Z,33.95
2023-08-07T07:01:49.813Z,35.04
2023-08-07T07:04:16.857Z,32.80
2023-08-07T07:06:44.235Z,33.12
2023-08-07T07:09:11.648Z,34.78
2023-08-07T07:11:39.029Z,35.45
2023-08-07T07:14:06.498Z,34.79
2023-08-07T07:16:34.041Z,34.84
2023-08-07T07:19:01.187Z,33.05
2023-08-07T07:21:28.578Z,34.96
2023-08-07T07:23:55.952Z,36.31
2023-08-07T07:26:23.342Z,35.40
2023-08-07T07:28:52.321Z,36.33
2023-08-07T07:31:19.891Z,35.46
2023-08-07T07:33:47.462Z,34.21
2023-08-07T07:36:18.929Z,34.47
2023-08-07T07:38:49.502Z,35.91
2023-08-07T07:41:17.179Z,34.42
2023-08-07T07:43:44.638Z,33.92
2023-08-07T07:46:12.825Z,35.31
2023-08-07T07:48:40.316Z,35.16
2023-08-07T07:51:07.860Z,34.70
2023-08-07T07:53:35.377Z,34.49
2023-08-07T07:56:02.410Z,35.96
2023-08-07T07:58:29.789Z,34.58
2023-08-07T08:00:57.774Z,35.55
2023-08-07T08:03:25.520Z,32.83
2023-08-07T08:05:53.335Z,31.77
2023-08-07T08:08:20.492Z,25.72
2023-08-07T08:10:49.043Z,25.90
2023-08-07T08:13:17.143Z,23.70
2023-08-07T08:15:45.451Z,24.13
2023-08-07T08:18:13.139Z,24.87
2023-08-07T08:20:40.438Z,24.31
2023-08-07T08:23:07.462Z,24.04
2023-08-07T08:25:34.465Z,24.72
2023-08-07T08:28:01.578Z,22.85
2023-08-07T08:30:29.532Z,23.63
2023-08-07T08:32:57.321Z,23.88
2023-08-07T08:35:24.346Z,23.91
2023-08-07T08:37:51.668Z,24.21
2023-08-07T08:40:20.623Z,24.15
2023-08-07T08:42:48.235Z,24.54
2023-08-07T08:45:16.923Z,24.13
2023-08-07T08:47:45.894Z,24.09
2023-08-07T08:50:15.613Z,24.82
2023-08-07T08:52:45.891Z,24.42
2023-08-07T08:55:15.085Z,24.79
2023-08-07T08:57:42.979Z,24.81
2023-08-07T09:00:22.417Z,24.91
2023-08-07T09:02:51.229Z,24.88
2023-08-07T09:05:21.229Z,24.86
2023-08-07T09:07:51.724Z,25.34
2023-08-07T09:10:21.699Z,26.10
2023-08-07T09:13:04.681Z,25.44
2023-08-07T09:15:33.717Z,25.02
2023-08-07T09:18:01.953Z,23.93
2023-08-07T09:20:29.639Z,23.34
2023-08-07T09:22:56.688Z,24.19
2023-08-07T09:25:34.813Z,24.57
2023-08-07T09:28:06.464Z,23.39
2023-08-07T09:30:36.071Z,24.21
2023-08-07T09:33:04.150Z,23.88
2023-08-07T09:35:33.247Z,25.16
2023-08-07T09:38:00.297Z,25.47
2023-08-07T09:40:27.471Z,24.49
2023-08-07T09:42:55.614Z,25.46
2023-08-07T09:45:27.961Z,25.60
2023-08-07T09:48:02.808Z,24.93
2023-08-07T09:50:31.298Z,25.23
2023-08-07T09:52:59.158Z,24.72
2023-08-07T09:55:27.637Z,25.40
2023-08-07T09:57:55.629Z,25.14
2023-08-07T10:00:23.015Z,24.73
2023-08-07T10:02:51.672Z,24.25
2023-08-07T10:05:20.347Z,24.91
2023-08-07T10:07:48.532Z,23.97
2023-08-07T10:10:16.007Z,23.95
2023-08-07T10:12:43.296Z,23.13
2023-08-07T10:15:11.065Z,24.31
2023-08-07T10:17:38.205Z,23.72
2023-08-07T10:20:07.382Z,23.83
2023-08-07T10:22:38.092Z,25.16
2023-08-07T10:25:07.708Z,24.93
2023-08-07T10:27:39.701Z,25.85
2023-08-07T10:30:13.823Z,24.44
2023-08-07T10:32:43.124Z,24.62
2023-08-07T10:35:11.210Z,23.86
2023-08-07T10:37:46.547Z,24.01
2023-08-07T10:40:14.469Z,23.48
2023-08-07T10:43:19.108Z,25.27
2023-08-07T10:45:46.510Z,24.94
2023-08-07T10:48:15.010Z,24.64
2023-08-07T10:51:12.057Z,24.21
2023-08-07T10:53:49.912Z,24.25
2023-08-07T10:56:35.519Z,25.10
2023-08-07T10:59:11.572Z,24.15
2023-08-07T11:01:44.037Z,25.54
2023-08-07T11:04:14.541Z,25.47
2023-08-07T11:06:44.268Z,25.15
2023-08-07T11:09:12.153Z,24.39
2023-08-07T11:11:50.204Z,24.88
2023-08-07T11:14:19.312Z,24.08
2023-08-07T11:16:48.729Z,23.38
2023-08-07T11:19:17.645Z,23.49
2023-08-07T11:21:45.685Z,23.33
2023-08-07T11:24:17.561Z,24.68
2023-08-07T11:26:47.696Z,24.28
2023-08-07T11:29:19.926Z,24.44
2023-08-07T11:31:47.603Z,24.22
2023-08-07T11:34:14.724Z,24.27
2023-08-07T11:36:45.317Z,25.17
2023-08-07T11:39:14.271Z,24.65
2023-08-07T11:41:42.138Z,25.07
2023-08-07T11:44:09.368Z,24.15
2023-08-07T11:46:37.212Z,25.15
2023-08-07T11:49:08.813Z,24.39
2023-08-07T11:51:36.342Z,24.48
2023-08-07T11:54:04.287Z,24.22
2023-08-07T11:56:32.735Z,23.50
2023-08-07T11:59:00.037Z,23.99
2023-08-07T12:01:28.058Z,24.50
2023-08-07T12:04:10.924Z,24.42
2023-08-07T12:06:41.606Z,23.81
2023-08-07T12:09:13.929Z,24.49
2023-08-07T12:11:41.226Z,24.82
2023-08-07T12:14:08.600Z,24.47
2023-08-07T12:16:38.675Z,24.84
2023-08-07T12:19:05.624Z,23.26
2023-08-07T12:21:34.555Z,23.84
2023-08-07T12:24:01.900Z,23.97
2023-08-07T12:26:29.178Z,24.68
2023-08-07T12:28:56.234Z,24.66
2023-08-07T12:31:23.430Z,24.33
2023-08-07T12:33:51.196Z,24.71
2023-08-07T12:36:20.857Z,23.43
2023-08-07T12:38:48.566Z,23.96
2023-08-07T12:43:46.674Z,24.09
2023-08-07T12:48:43.606Z,24.30
2023-08-07T12:51:10.606Z,23.80
2023-08-07T12:53:37.588Z,24.63
2023-08-07T12:56:06.564Z,23.75
2023-08-07T12:58:33.554Z,23.86
2023-08-07T13:01:01.059Z,24.06
2023-08-07T13:03:28.226Z,23.33
2023-08-07T13:05:55.673Z,23.35
2023-08-07T13:08:23.093Z,23.15
2023-08-07T13:10:50.731Z,23.76
2023-08-07T13:13:18.215Z,24.15
2023-08-07T13:15:45.251Z,24.00
2023-08-07T13:18:12.321Z,23.97
2023-08-07T13:20:39.748Z,24.64
2023-08-07T13:23:07.621Z,24.95
2023-08-07T13:25:35.532Z,25.06
2023-08-07T13:28:07.583Z,25.77
2023-08-07T13:30:37.340Z,25.00
2023-08-07T13:33:05.491Z,24.69
2023-08-07T13:35:34.587Z,24.74
2023-08-07T13:38:06.343Z,25.56
2023-08-07T13:40:34.597Z,25.99
2023-08-07T13:43:04.235Z,25.99
2023-08-07T13:45:31.600Z,26.86
2023-08-07T13:47:59.008Z,26.86
2023-08-07T13:50:26.189Z,27.53
2023-08-07T13:53:04.107Z,28.23
2023-08-07T13:55:41.339Z,28.82
2023-08-07T13:58:08.391Z,28.14
2023-08-07T14:00:36.612Z,28.42
2023-08-07T14:03:04.724Z,28.37
2023-08-07T14:05:31.766Z,28.72
2023-08-07T14:07:59.046Z,28.68
2023-08-07T14:10:26.165Z,28.77
2023-08-07T14:12:53.687Z,28.95
2023-08-07T14:15:21.507Z,27.67
2023-08-07T14:17:48.608Z,27.03
2023-08-07T14:20:15.685Z,26.34
2023-08-07T14:22:42.873Z,26.94
2023-08-07T14:25:10.160Z,27.11
2023-08-07T14:27:37.537Z,27.37
2023-08-07T14:30:05.030Z,27.48
2023-08-07T14:32:32.016Z,27.19
2023-08-07T14:34:59.130Z,26.73
2023-08-07T14:37:26.166Z,25.60
2023-08-07T14:39:53.774Z,26.74
2023-08-07T14:42:21.146Z,27.03
2023-08-07T14:44:48.930Z,26.16
2023-08-07T14:47:16.506Z,25.34
2023-08-07T14:49:44.361Z,25.11
2023-08-07T14:52:11.460Z,25.66
2023-08-07T14:54:38.871Z,25.13
2023-08-07T14:57:06.007Z,25.02
2023-08-07T14:59:33.441Z,25.14
2023-08-07T15:02:00.651Z,25.46
2023-08-07T15:04:28.231Z,25.72
2023-08-07T15:06:57.973Z,26.72
2023-08-07T15:09:26.493Z,26.18
2023-08-07T15:11:53.940Z,25.88
2023-08-07T15:14:21.435Z,25.31
2023-08-07T15:16:48.844Z,25.65
2023-08-07T15:19:15.849Z,25.52
2023-08-07T15:21:43.355Z,26.26
2023-08-07T15:24:10.348Z,26.10
2023-08-07T15:26:37.843Z,25.45
2023-08-07T15:29:05.528Z,25.24
2023-08-07T15:31:33.496Z,25.06
2023-08-07T15:34:00.642Z,25.17
2023-08-07T15:36:27.736Z,24.40
2023-08-07T15:38:54.746Z,24.51
2023-08-07T15:41:22.754Z,26.10
2023-08-07T15:43:52.989Z,25.95
2023-08-07T15:46:20.051Z,26.12
2023-08-07T15:48:47.187Z,25.73
2023-08-07T15:51:14.407Z,26.47
2023-08-07T15:53:41.499Z,26.23
2023-08-07T15:56:08.685Z,25.25
2023-08-07T15:58:36.194Z,25.39
2023-08-07T16:01:03.263Z,24.89
2023-08-07T16:03:30.288Z,24.35
2023-08-07T16:05:57.759Z,25.12
2023-08-07T16:08:24.952Z,25.01
2023-08-07T16:10:53.833Z,24.78
2023-08-07T16:13:21.384Z,24.77
2023-08-07T16:15:48.408Z,24.82
2023-08-07T16:18:15.432Z,25.58
2023-08-07T16:20:42.828Z,25.74
2023-08-07T16:23:09.823Z,25.48
2023-08-07T16:25:36.898Z,26.20
2023-08-07T16:28:05.676Z,26.13
2023-08-07T16:30:32.946Z,26.36
2023-08-07T16:32:59.953Z,25.40
2023-08-07T16:35:27.193Z,25.78
2023-08-07T16:37:54.193Z,25.56
2023-08-07T16:40:21.299Z,25.83
2023-08-07T16:42:48.259Z,25.66
2023-08-07T16:45:15.871Z,25.81
2023-08-07T16:47:43.144Z,25.53
2023-08-07T16:50:12.921Z,25.43
2023-08-07T16:52:40.276Z,25.73
2023-08-07T16:55:08.485Z,25.77
2023-08-07T16:57:35.517Z,26.08
2023-08-07T17:00:05.152Z,25.84
2023-08-07T17:02:32.186Z,25.76
2023-08-07T17:04:59.683Z,25.08
2023-08-07T17:07:26.707Z,25.28
2023-08-07T17:09:54.071Z,25.85
2023-08-07T17:12:21.119Z,25.75
2023-08-07T17:14:48.851Z,25.17
2023-08-07T17:17:15.805Z,25.48
2023-08-07T17:19:42.788Z,25.94
2023-08-07T17:22:09.797Z,25.79
2023-08-07T17:24:36.829Z,25.54
2023-08-07T17:27:04.088Z,25.75
2023-08-07T17:29:31.288Z,25.74
2023-08-07T17:31:59.574Z,25.30
2023-08-07T17:34:26.982Z,25.61
2023-08-07T17:36:54.394Z,26.18
2023-08-07T17:39:21.496Z,25.85
2023-08-07T17:41:48.886Z,25.98
2023-08-07T17:44:16.294Z,25.65
2023-08-07T17:46:43.829Z,25.58
2023-08-07T17:49:11.507Z,25.23
2023-08-07T17:51:38.937Z,24.33
2023-08-07T17:54:05.951Z,25.75
2023-08-07T17:56:34.814Z,24.95
2023-08-07T17:59:03.337Z,25.45
2023-08-07T18:01:30.935Z,25.81
2023-08-07T18:04:01.337Z,25.72
2023-08-07T18:06:29.498Z,25.34
2023-08-07T18:08:57.262Z,25.63
2023-08-07T18:11:24.505Z,25.47
2023-08-07T18:13:51.537Z,25.36
2023-08-07T18:16:19.104Z,25.24
2023-08-07T18:18:46.104Z,25.31
2023-08-07T18:21:13.341Z,25.13
2023-08-07T18:23:40.334Z,25.61
2023-08-07T18:26:07.814Z,25.86
2023-08-07T18:28:35.079Z,25.62
2023-08-07T18:31:02.425Z,26.02
2023-08-07T18:33:29.718Z,25.52
2023-08-07T18:36:00.899Z,26.05
2023-08-07T18:38:31.441Z,26.20
2023-08-07T18:40:58.811Z,25.13
2023-08-07T18:43:26.327Z,25.95
2023-08-07T18:45:53.946Z,25.86
2023-08-07T18:48:21.081Z,26.24
2023-08-07T18:50:48.607Z,26.13
2023-08-07T18:53:16.090Z,26.01
2023-08-07T18:55:43.554Z,26.58
2023-08-07T18:58:10.616Z,26.07
2023-08-07T19:00:37.660Z,25.81
2023-08-07T19:03:05.759Z,25.77
2023-08-07T19:05:33.289Z,26.05
2023-08-07T19:08:00.322Z,26.06
2023-08-07T19:10:27.385Z,26.02
2023-08-07T19:12:54.854Z,25.89
2023-08-07T19:15:21.982Z,26.20
2023-08-07T19:17:49.614Z,26.19
2023-08-07T19:20:16.923Z,26.23
2023-08-07T19:22:43.908Z,26.12
2023-08-07T19:25:11.438Z,25.89
2023-08-07T19:27:38.467Z,25.88
2023-08-07T19:30:06.693Z,25.96
2023-08-07T19:32:33.688Z,26.08
2023-08-07T19:35:00.895Z,25.90
2023-08-07T19:37:27.989Z,25.91
2023-08-07T19:39:55.602Z,25.99
2023-08-07T19:42:22.857Z,25.82
2023-08-07T19:44:50.277Z,25.79
2023-08-07T19:47:30.324Z,25.77
2023-08-07T19:50:03.509Z,25.46
2023-08-07T19:52:31.050Z,25.04
2023-08-07T19:54:58.227Z,25.28
2023-08-07T19:57:25.631Z,25.25
2023-08-07T19:59:53.020Z,25.29
2023-08-07T20:02:20.657Z,25.66
2023-08-07T20:04:48.577Z,25.69
2023-08-07T20:07:15.696Z,25.54
2023-08-07T20:09:43.794Z,25.15
2023-08-07T20:12:11.547Z,25.04
2023-08-07T20:14:39.113Z,24.99
2023-08-07T20:17:07.511Z,25.49
2023-08-07T20:19:35.055Z,25.31
2023-08-07T20:22:02.263Z,24.87
2023-08-07T20:24:29.650Z,25.08
2023-08-07T20:26:58.297Z,25.20
2023-08-07T20:29:25.950Z,25.05
2023-08-07T20:31:53.476Z,25.12
2023-08-07T20:34:20.610Z,25.02
2023-08-07T20:36:47.827Z,25.09
2023-08-07T20:39:15.520Z,25.20
2023-08-07T20:41:44.277Z,25.16
2023-08-07T20:44:11.336Z,24.86
2023-08-07T20:46:38.841Z,25.23
2023-08-07T20:49:06.264Z,25.05
2023-08-07T20:51:34.176Z,25.16
2023-08-07T20:54:01.258Z,25.09
2023-08-07T20:56:28.437Z,25.06
2023-08-07T20:58:55.881Z,24.97
2023-08-07T21:01:23.279Z,25.12
2023-08-07T21:03:50.431Z,25.00
2023-08-07T21:06:17.501Z,25.20
2023-08-07T21:08:44.562Z,25.14
2023-08-07T21:11:11.575Z,25.09
2023-08-07T21:13:39.678Z,24.93
2023-08-07T21:16:06.874Z,24.73
2023-08-07T21:18:33.967Z,25.09
2023-08-07T21:21:01.117Z,24.97
2023-08-07T21:23:28.174Z,25.06
2023-08-07T21:25:55.680Z,25.08
2023-08-07T21:28:22.710Z,25.17
2023-08-07T21:30:50.770Z,25.16
2023-08-07T21:33:18.020Z,24.17
2023-08-07T21:35:47.190Z,24.83
2023-08-07T21:38:14.925Z,24.69
2023-08-07T21:40:41.882Z,24.79
2023-08-07T21:43:09.065Z,24.80
2023-08-07T21:45:36.121Z,25.11
2023-08-07T21:48:04.023Z,25.09
2023-08-07T21:50:31.073Z,25.19
2023-08-07T21:52:58.075Z,25.27
2023-08-07T21:55:25.141Z,25.01
2023-08-07T21:57:52.570Z,25.13
2023-08-07T22:00:21.291Z,25.40
2023-08-07T22:02:48.583Z,25.36
2023-08-07T22:05:18.897Z,24.93
2023-08-07T22:07:47.202Z,24.95
2023-08-07T22:10:16.218Z,24.90
2023-08-07T22:12:43.900Z,24.94
2023-08-07T22:15:12.166Z,24.75
2023-08-07T22:17:39.715Z,24.53
2023-08-07T22:20:08.551Z,24.73
2023-08-07T22:22:35.636Z,24.01
2023-08-07T22:25:03.049Z,24.58
2023-08-07T22:27:30.477Z,24.63
2023-08-07T22:29:59.475Z,24.41
2023-08-07T22:32:26.502Z,24.37
2023-08-07T22:34:53.840Z,24.41
2023-08-07T22:37:21.907Z,24.23
2023-08-07T22:39:49.379Z,24.62
2023-08-07T22:42:16.490Z,24.41
2023-08-07T22:44:43.864Z,24.69
2023-08-07T22:47:11.259Z,24.28
2023-08-07T22:49:38.651Z,24.53
2023-08-07T22:52:05.898Z,24.63
2023-08-07T22:54:33.313Z,24.30
2023-08-07T22:57:00.275Z,24.49
2023-08-07T22:59:27.834Z,24.25
2023-08-07T23:01:57.159Z,24.36
2023-08-07T23:04:24.592Z,24.47
2023-08-07T23:06:51.531Z,24.37
2023-08-07T23:09:20.600Z,24.33
2023-08-07T23:11:48.068Z,24.77
2023-08-07T23:14:15.229Z,24.78
2023-08-07T23:16:42.676Z,24.71
2023-08-07T23:19:11.580Z,24.32
2023-08-07T23:21:40.869Z,24.42
2023-08-07T23:24:09.990Z,24.19
2023-08-07T23:26:37.125Z,24.27
2023-08-07T23:29:04.146Z,24.41
2023-08-07T23:31:31.238Z,24.30
2023-08-07T23:33:59.033Z,24.53
2023-08-07T23:36:26.447Z,24.33
2023-08-07T23:38:53.853Z,24.19
2023-08-07T23:41:22.483Z,24.14
2023-08-07T23:43:50.482Z,23.80
2023-08-07T23:46:19.512Z,24.37
2023-08-07T23:48:47.532Z,24.04
2023-08-07T23:51:15.066Z,24.22
2023-08-07T23:53:42.099Z,24.24
2023-08-07T23:56:10.928Z,24.14
2023-08-07T23:58:38.076Z,24.38
